Time;durP1;ratioP1;P1;durP2;ratioP2;P2;SDS_P1;SDS_P2;PMS_P1;PMS_P2;Temp;Humidity;BMP_temperature;BMP_pressure;BME280_temperature;BME280_humidity;BME280_pressure;Samples;Min_cycle;Max_cycle;Signal;HPM_P1;HPM_P2
2021/07/18 00:00:32;;;;;;;13.80;7.85;;;;;;;18.41;100.00;101460.16;4938237;29;20231;-77
2021/07/18 00:03:03;;;;;;;12.55;7.80;;;;;;;18.42;100.00;101460.97;4913946;29;20655;-77
2021/07/18 00:05:31;;;;;;;12.10;7.30;;;;;;;18.28;100.00;101455.44;4938059;29;20235;-77
2021/07/18 00:08:02;;;;;;;9.48;6.97;;;;;;;18.28;100.00;101460.94;4934089;29;20230;-79
2021/07/18 00:10:27;;;;;;;13.23;7.47;;;;;;;18.38;100.00;101449.75;4957346;28;20307;-77
2021/07/18 00:12:55;;;;;;;12.75;7.35;;;;;;;18.37;100.00;101458.28;4912179;29;20207;-77
2021/07/18 00:15:23;;;;;;;11.57;7.63;;;;;;;18.37;100.00;101464.63;4921747;29;20219;-76
2021/07/18 00:17:53;;;;;;;11.63;7.25;;;;;;;18.46;100.00;101478.50;4940118;29;20180;-77
2021/07/18 00:20:19;;;;;;;9.52;6.97;;;;;;;18.56;100.00;101479.13;4925121;29;20183;-77
2021/07/18 00:22:44;;;;;;;12.45;6.68;;;;;;;18.41;100.00;101473.09;4913362;29;20207;-77
2021/07/18 00:25:13;;;;;;;9.60;6.65;;;;;;;18.27;100.00;101470.31;4927273;28;20218;-77
2021/07/18 00:27:43;;;;;;;13.63;7.45;;;;;;;18.37;100.00;101467.38;4942018;28;20270;-76
2021/07/18 00:30:16;;;;;;;12.35;6.60;;;;;;;18.36;100.00;101468.50;4940970;28;20570;-77
2021/07/18 00:32:46;;;;;;;7.93;5.85;;;;;;;18.41;100.00;101471.16;4923842;29;20208;-77
2021/07/18 00:35:16;;;;;;;10.88;6.45;;;;;;;18.28;100.00;101476.66;4937864;28;20219;-77
2021/07/18 00:37:41;;;;;;;9.50;6.32;;;;;;;18.18;100.00;101471.31;4926129;29;20225;-76
2021/07/18 00:40:13;;;;;;;11.63;6.28;;;;;;;18.34;100.00;101479.00;4957680;28;20195;-77
2021/07/18 00:42:40;;;;;;;11.80;7.07;;;;;;;18.45;100.00;101474.13;4925069;29;20219;-76
2021/07/18 00:45:08;;;;;;;14.40;7.00;;;;;;;18.41;100.00;101470.34;4923409;29;20187;-76
2021/07/18 00:47:40;;;;;;;11.25;6.63;;;;;;;18.58;100.00;101474.13;4927549;29;20657;-76
2021/07/18 00:50:13;;;;;;;13.65;6.03;;;;;;;18.39;100.00;101473.41;4941462;28;20526;-77
2021/07/18 00:52:39;;;;;;;9.73;6.75;;;;;;;18.40;100.00;101464.00;4939840;28;20301;-76
2021/07/18 00:55:07;;;;;;;9.45;6.50;;;;;;;18.36;100.00;101473.19;4938557;29;20286;-76
2021/07/18 00:57:38;;;;;;;10.27;6.10;;;;;;;18.42;100.00;101467.28;4941570;29;20215;-77
2021/07/18 01:00:07;;;;;;;11.30;5.95;;;;;;;18.58;100.00;101472.19;4941878;29;20179;-76
2021/07/18 01:02:33;;;;;;;11.15;6.00;;;;;;;18.21;100.00;101467.97;4939842;29;20253;-77
2021/07/18 01:04:59;;;;;;;11.57;6.25;;;;;;;18.31;100.00;101470.53;4955108;28;20176;-76
2021/07/18 01:07:27;;;;;;;12.10;5.60;;;;;;;18.20;100.00;101461.66;4938490;29;20231;-77
2021/07/18 01:09:53;;;;;;;11.52;5.47;;;;;;;18.28;100.00;101471.97;4953689;29;20265;-76
2021/07/18 01:12:23;;;;;;;11.68;6.20;;;;;;;18.19;100.00;101468.25;4928607;29;20235;-76
2021/07/18 01:14:51;;;;;;;8.60;5.45;;;;;;;18.17;100.00;101470.50;4940912;29;20196;-76
2021/07/18 01:17:22;;;;;;;9.45;5.47;;;;;;;18.26;100.00;101473.34;4942625;28;20226;-77
2021/07/18 01:19:53;;;;;;;7.85;5.45;;;;;;;18.16;100.00;101466.09;4960135;28;20214;-77
2021/07/18 01:22:21;;;;;;;12.52;5.85;;;;;;;18.13;100.00;101474.97;4961659;28;20230;-78
2021/07/18 01:24:51;;;;;;;10.65;5.88;;;;;;;18.17;100.00;101476.00;4963815;28;20278;-77
2021/07/18 01:27:19;;;;;;;7.70;5.43;;;;;;;18.20;100.00;101469.91;4959407;28;20231;-77
2021/07/18 01:29:49;;;;;;;9.38;6.05;;;;;;;18.16;100.00;101474.34;4940611;28;20191;-78
2021/07/18 01:32:14;;;;;;;10.50;6.13;;;;;;;18.17;100.00;101481.50;4946813;28;20306;-77
2021/07/18 01:34:42;;;;;;;9.95;6.38;;;;;;;18.25;100.00;101467.03;4938325;29;20183;-78
2021/07/18 01:37:12;;;;;;;8.43;5.78;;;;;;;18.17;100.00;101470.50;4946872;29;20225;-77
2021/07/18 01:39:46;;;;;;;10.02;5.47;;;;;;;18.19;100.00;101479.25;4939410;28;20234;-77
2021/07/18 01:42:11;;;;;;;10.15;5.65;;;;;;;18.25;100.00;101486.31;4937832;29;20276;-76
2021/07/18 01:44:39;;;;;;;9.80;5.70;;;;;;;18.18;100.00;101487.81;4942989;29;20397;-76
2021/07/18 01:47:05;;;;;;;8.75;5.60;;;;;;;17.96;100.00;101478.56;4957981;28;20218;-76
2021/07/18 01:49:33;;;;;;;9.73;5.35;;;;;;;18.15;100.00;101481.00;4979590;28;20217;-76
2021/07/18 01:51:59;;;;;;;9.88;5.43;;;;;;;18.02;100.00;101477.34;4980497;28;20234;-76
2021/07/18 01:54:27;;;;;;;10.38;5.25;;;;;;;17.88;100.00;101476.50;4935440;29;20198;-76
2021/07/18 01:56:55;;;;;;;10.75;5.68;;;;;;;18.15;100.00;101483.75;4923212;29;20363;-77
2021/07/18 01:59:20;;;;;;;10.07;5.55;;;;;;;18.03;100.00;101484.50;4945139;29;20194;-76
2021/07/18 02:01:46;;;;;;;11.18;5.45;;;;;;;18.04;100.00;101492.44;4942393;28;20227;-76
2021/07/18 02:04:12;;;;;;;12.25;6.03;;;;;;;17.97;100.00;101482.94;4954349;29;20673;-76
2021/07/18 02:06:40;;;;;;;11.75;5.65;;;;;;;17.97;100.00;101485.69;4924659;29;20250;-76
2021/07/18 02:09:06;;;;;;;10.63;5.05;;;;;;;18.00;100.00;101474.88;4926784;29;20178;-76
2021/07/18 02:11:32;;;;;;;9.70;5.72;;;;;;;17.83;100.00;101474.63;4935486;29;20243;-77
2021/07/18 02:14:00;;;;;;;11.68;5.88;;;;;;;18.00;100.00;101480.38;4924789;29;20576;-76
2021/07/18 02:16:28;;;;;;;10.45;5.43;;;;;;;17.92;100.00;101472.03;4938882;29;20235;-77
2021/07/18 02:18:56;;;;;;;8.55;5.90;;;;;;;17.88;100.00;101471.81;4922562;29;20184;-77
2021/07/18 02:21:27;;;;;;;12.55;5.57;;;;;;;17.95;100.00;101477.75;4951703;28;20261;-76
2021/07/18 02:23:52;;;;;;;11.25;6.15;;;;;;;17.90;100.00;101474.25;4926207;29;20241;-77
2021/07/18 02:26:20;;;;;;;9.40;5.72;;;;;;;18.01;100.00;101475.72;4924418;29;20676;-77
2021/07/18 02:28:48;;;;;;;8.05;6.15;;;;;;;17.90;100.00;101477.00;4958009;28;20183;-77
2021/07/18 02:31:16;;;;;;;10.85;6.53;;;;;;;17.85;100.00;101472.41;4956213;28;20705;-77
2021/07/18 02:33:41;;;;;;;10.50;5.80;;;;;;;18.04;100.00;101475.09;4923395;29;20210;-77
2021/07/18 02:36:09;;;;;;;12.38;6.78;;;;;;;18.13;100.00;101474.13;4950066;28;20234;-77
2021/07/18 02:38:35;;;;;;;11.93;6.95;;;;;;;17.94;100.00;101475.28;4941480;29;20187;-77
2021/07/18 02:41:03;;;;;;;11.43;6.65;;;;;;;18.08;100.00;101471.47;4927604;29;20215;-76
2021/07/18 02:43:29;;;;;;;14.25;7.15;;;;;;;18.00;100.00;101468.56;4922228;29;20230;-76
2021/07/18 02:45:54;;;;;;;11.95;7.53;;;;;;;18.18;100.00;101463.06;4946501;29;20708;-76
2021/07/18 02:48:27;;;;;;;12.27;7.82;;;;;;;18.09;100.00;101462.13;4937255;29;20646;-77
2021/07/18 02:50:55;;;;;;;13.65;8.45;;;;;;;17.95;100.00;101453.00;4939390;28;20225;-77
2021/07/18 02:53:21;;;;;;;11.10;8.05;;;;;;;17.80;100.00;101461.50;4978548;28;20360;-77
2021/07/18 02:55:49;;;;;;;11.90;8.20;;;;;;;17.76;100.00;101452.22;4965058;28;20223;-76
2021/07/18 02:58:18;;;;;;;13.27;7.88;;;;;;;17.81;100.00;101463.13;4939988;29;20237;-76
2021/07/18 03:00:43;;;;;;;16.27;8.93;;;;;;;17.91;100.00;101462.13;4965866;28;20241;-76
2021/07/18 03:03:11;;;;;;;12.98;9.20;;;;;;;17.75;100.00;101452.53;4977558;28;20215;-76
2021/07/18 03:05:37;;;;;;;15.52;9.05;;;;;;;17.81;100.00;101456.81;4939186;28;20243;-76
2021/07/18 03:08:05;;;;;;;14.75;9.63;;;;;;;17.95;100.00;101454.94;4937270;29;20215;-77
2021/07/18 03:10:33;;;;;;;14.60;10.85;;;;;;;17.97;100.00;101452.69;4980968;28;20284;-77
2021/07/18 03:12:58;;;;;;;15.05;9.60;;;;;;;18.09;100.00;101447.56;4956957;28;20471;-77
2021/07/18 03:15:29;;;;;;;15.32;10.30;;;;;;;18.06;100.00;101451.72;4953694;28;20210;-77
2021/07/18 03:17:54;;;;;;;14.15;10.00;;;;;;;18.09;100.00;101451.13;4939295;29;20179;-77
2021/07/18 03:20:24;;;;;;;11.80;9.80;;;;;;;17.99;100.00;101456.78;4922610;29;20673;-77
2021/07/18 03:22:56;;;;;;;19.77;10.65;;;;;;;17.82;100.00;101459.28;4925512;29;20295;-77
2021/07/18 03:25:24;;;;;;;19.13;10.32;;;;;;;17.98;100.00;101462.56;4938940;29;20180;-77
2021/07/18 03:27:49;;;;;;;13.93;10.63;;;;;;;17.93;100.00;101462.66;4939921;29;20243;-77
2021/07/18 03:30:16;;;;;;;15.77;10.35;;;;;;;17.99;100.00;101455.97;4921434;28;20188;-78
2021/07/18 03:32:44;;;;;;;15.25;10.70;;;;;;;17.98;100.00;101454.31;4909384;29;20211;-77
2021/07/18 03:35:10;;;;;;;17.80;10.93;;;;;;;17.99;100.00;101461.47;4909214;29;20234;-76
2021/07/18 03:37:38;;;;;;;15.43;9.90;;;;;;;18.04;100.00;101458.59;4907048;29;20176;-77
2021/07/18 03:40:07;;;;;;;17.45;9.75;;;;;;;17.90;100.00;101461.31;4923838;28;20540;-76
2021/07/18 03:42:33;;;;;;;14.15;9.43;;;;;;;17.91;100.00;101468.47;4922830;29;20211;-76
2021/07/18 03:44:58;;;;;;;15.20;9.50;;;;;;;17.94;100.00;101459.59;4939067;29;20606;-76
2021/07/18 03:47:29;;;;;;;13.27;10.15;;;;;;;17.94;100.00;101464.28;4936496;29;20243;-76
2021/07/18 03:49:57;;;;;;;13.20;8.75;;;;;;;18.05;100.00;101472.06;4920262;29;20196;-76
2021/07/18 03:52:25;;;;;;;14.88;10.43;;;;;;;17.94;100.00;101467.03;4984910;28;20226;-76
2021/07/18 03:54:50;;;;;;;13.88;9.40;;;;;;;18.14;100.00;101467.53;4974741;28;20190;-78
2021/07/18 03:57:16;;;;;;;13.82;9.90;;;;;;;18.15;100.00;101461.75;4912011;29;20235;-77
2021/07/18 03:59:42;;;;;;;14.68;9.63;;;;;;;18.20;100.00;101469.91;4937007;29;20194;-77
2021/07/18 04:02:09;;;;;;;16.15;10.32;;;;;;;18.30;100.00;101463.41;4948505;28;20223;-76
2021/07/18 04:04:37;;;;;;;14.02;9.48;;;;;;;18.21;100.00;101470.72;4958610;29;20649;-78
2021/07/18 04:07:03;;;;;;;11.48;9.55;;;;;;;18.23;100.00;101461.03;4948856;29;20230;-77
2021/07/18 04:09:31;;;;;;;17.63;10.05;;;;;;;18.26;100.00;101468.69;4924771;29;20195;-77
2021/07/18 04:11:57;;;;;;;14.63;9.10;;;;;;;18.11;100.00;101459.88;4924516;29;20231;-76
2021/07/18 04:14:22;;;;;;;13.45;8.45;;;;;;;18.42;100.00;101456.25;4921931;29;20187;-77
2021/07/18 04:16:48;;;;;;;12.15;9.80;;;;;;;18.31;100.00;101465.81;4921042;29;20614;-77
2021/07/18 04:19:16;;;;;;;12.40;9.10;;;;;;;18.46;100.00;101473.81;4951762;29;20207;-77
2021/07/18 04:21:44;;;;;;;14.38;9.23;;;;;;;18.55;100.00;101466.47;4939184;29;20219;-77
2021/07/18 04:24:09;;;;;;;10.93;9.32;;;;;;;18.48;100.00;101462.50;4940457;29;20188;-77
2021/07/18 04:26:35;;;;;;;12.43;9.20;;;;;;;18.40;100.00;101454.94;4936876;29;20230;-76
2021/07/18 04:29:04;;;;;;;13.88;8.63;;;;;;;18.49;100.00;101459.44;4906756;29;20183;-76
2021/07/18 04:31:32;;;;;;;12.18;8.90;;;;;;;18.55;100.00;101466.47;4935819;29;20216;-77
2021/07/18 04:34:02;;;;;;;12.20;8.38;;;;;;;18.66;100.00;101465.16;4906125;29;20226;-78
2021/07/18 04:36:27;;;;;;;12.90;8.55;;;;;;;18.67;100.00;101467.59;4938923;29;20235;-76
2021/07/18 04:38:56;;;;;;;13.68;9.20;;;;;;;18.51;100.00;101470.97;4937904;29;20219;-77
2021/07/18 04:41:24;;;;;;;13.85;8.95;;;;;;;18.88;100.00;101477.06;4955874;28;20226;-78
2021/07/18 04:43:52;;;;;;;12.98;9.13;;;;;;;18.67;100.00;101475.06;4915388;29;20186;-77
2021/07/18 04:46:20;;;;;;;14.23;8.88;;;;;;;18.87;100.00;101475.47;4929179;29;20236;-77
2021/07/18 04:48:46;;;;;;;13.70;9.60;;;;;;;18.95;100.00;101470.06;4905204;29;20650;-77
2021/07/18 04:51:14;;;;;;;12.52;9.18;;;;;;;18.80;100.00;101475.03;4930299;29;20228;-77
2021/07/18 04:53:45;;;;;;;10.82;9.25;;;;;;;18.78;100.00;101476.50;4958693;28;20599;-78
2021/07/18 04:56:10;;;;;;;12.43;8.77;;;;;;;19.19;100.00;101467.88;4962080;28;20261;-77
2021/07/18 04:58:37;;;;;;;11.85;9.25;;;;;;;19.14;100.00;101467.19;4943603;29;20198;-77
2021/07/18 05:01:03;;;;;;;13.07;9.10;;;;;;;19.02;100.00;101467.72;4938573;29;20227;-77
2021/07/18 05:03:31;;;;;;;14.35;9.02;;;;;;;19.01;100.00;101463.34;4920920;29;20207;-77
2021/07/18 05:06:05;;;;;;;14.18;9.30;;;;;;;19.11;100.00;101463.13;4942672;29;20358;-77
2021/07/18 05:08:33;;;;;;;14.00;9.38;;;;;;;19.04;100.00;101470.97;4910039;29;20211;-77
2021/07/18 05:11:00;;;;;;;12.43;8.85;;;;;;;19.21;100.00;101465.66;4926404;29;20219;-77
2021/07/18 05:13:30;;;;;;;11.15;9.18;;;;;;;19.09;100.00;101470.88;4926290;29;20294;-77
2021/07/18 05:15:56;;;;;;;12.02;8.38;;;;;;;19.10;100.00;101467.00;4956176;28;20226;-78
2021/07/18 05:18:24;;;;;;;12.43;7.75;;;;;;;19.04;100.00;101475.69;4980614;28;20652;-78
2021/07/18 05:20:52;;;;;;;8.52;7.53;;;;;;;19.09;100.00;101459.84;4974429;28;20254;-77
2021/07/18 05:23:18;;;;;;;11.88;7.88;;;;;;;18.94;100.00;101468.41;4953133;28;20207;-77
2021/07/18 05:25:48;;;;;;;10.18;8.38;;;;;;;18.88;100.00;101477.06;4943826;29;20609;-77
2021/07/18 05:28:18;;;;;;;11.95;7.63;;;;;;;18.94;100.00;101484.94;4956507;29;20194;-77
2021/07/18 05:30:44;;;;;;;9.32;7.50;;;;;;;18.66;100.00;101485.25;4964865;28;20235;-78
2021/07/18 05:33:14;;;;;;;9.50;7.00;;;;;;;19.14;100.00;101491.97;4954021;28;20387;-76
2021/07/18 05:35:40;;;;;;;10.95;6.60;;;;;;;19.15;100.00;101491.69;4957699;29;20230;-77
2021/07/18 05:38:06;;;;;;;9.43;6.95;;;;;;;19.30;100.00;101483.06;4919351;29;20698;-77
2021/07/18 05:40:34;;;;;;;10.02;7.18;;;;;;;19.04;100.00;101475.69;4962334;29;20226;-77
2021/07/18 05:43:00;;;;;;;9.68;6.88;;;;;;;19.12;100.00;101484.06;4930699;29;20222;-77
2021/07/18 05:45:30;;;;;;;10.23;7.00;;;;;;;18.93;100.00;101491.56;4914383;28;20235;-76
2021/07/18 05:48:01;;;;;;;9.90;6.68;;;;;;;19.35;100.00;101494.00;4937151;29;20185;-77
2021/07/18 05:50:32;;;;;;;8.57;6.10;;;;;;;19.52;100.00;101494.97;4950295;29;20273;-77
2021/07/18 05:52:57;;;;;;;8.63;6.82;;;;;;;19.23;100.00;101502.00;4959380;28;20223;-76
2021/07/18 05:55:25;;;;;;;11.63;6.05;;;;;;;18.98;100.00;101490.69;4941808;29;20267;-77
2021/07/18 05:57:52;;;;;;;8.25;5.97;;;;;;;19.16;100.00;101501.59;4933504;29;20191;-78
2021/07/18 06:00:20;;;;;;;7.85;5.47;;;;;;;19.19;100.00;101494.63;4964711;28;20262;-77
2021/07/18 06:02:48;;;;;;;7.38;5.30;;;;;;;19.47;100.00;101502.56;4961934;28;20199;-77
2021/07/18 06:05:16;;;;;;;5.30;4.20;;;;;;;19.41;100.00;101499.09;4911814;28;20176;-78
2021/07/18 06:07:44;;;;;;;5.28;3.88;;;;;;;19.57;100.00;101508.63;4944888;29;20653;-78
2021/07/18 06:10:13;;;;;;;6.00;4.60;;;;;;;19.82;100.00;101506.13;4963978;28;20203;-77
2021/07/18 06:12:39;;;;;;;9.40;4.95;;;;;;;19.74;100.00;101508.78;4931764;29;20223;-77
2021/07/18 06:15:07;;;;;;;6.15;4.47;;;;;;;19.77;100.00;101508.97;4934188;29;20215;-77
2021/07/18 06:17:35;;;;;;;6.30;4.03;;;;;;;19.68;100.00;101510.84;4944998;29;20230;-76
2021/07/18 06:20:04;;;;;;;7.28;3.90;;;;;;;19.74;100.00;101523.41;4946933;29;20274;-77
2021/07/18 06:22:30;;;;;;;6.28;3.92;;;;;;;19.88;100.00;101526.94;4937705;29;20284;-78
2021/07/18 06:24:58;;;;;;;6.40;3.58;;;;;;;19.60;100.00;101518.25;4945136;29;20180;-76
2021/07/18 06:27:26;;;;;;;3.40;3.05;;;;;;;19.28;100.00;101518.41;4961003;28;20230;-76
2021/07/18 06:29:52;;;;;;;4.50;3.30;;;;;;;19.36;100.00;101514.94;4957748;29;20187;-77
2021/07/18 06:32:21;;;;;;;4.03;3.13;;;;;;;19.32;100.00;101511.13;4930011;29;20226;-78
2021/07/18 06:34:51;;;;;;;5.30;3.33;;;;;;;19.65;100.00;101512.59;4967474;28;20188;-79
2021/07/18 06:37:17;;;;;;;7.43;3.63;;;;;;;19.62;100.00;101504.97;4962932;28;20227;-77
2021/07/18 06:39:43;;;;;;;4.35;3.08;;;;;;;19.40;100.00;101507.66;4959353;29;20178;-78
2021/07/18 06:42:10;;;;;;;5.43;2.85;;;;;;;19.96;100.00;101506.88;4954537;29;20238;-77
2021/07/18 06:44:41;;;;;;;4.47;2.90;;;;;;;20.37;100.00;101518.56;4917915;29;20203;-78
2021/07/18 06:47:07;;;;;;;7.85;3.53;;;;;;;20.31;100.00;101503.22;4946524;29;20323;-78
2021/07/18 06:49:32;;;;;;;5.13;2.95;;;;;;;20.52;100.00;101511.47;4937665;29;20188;-78
2021/07/18 06:52:03;;;;;;;7.38;3.25;;;;;;;21.16;100.00;101505.28;4949313;29;20232;-78
2021/07/18 06:54:31;;;;;;;5.22;3.50;;;;;;;21.14;100.00;101493.75;4948256;29;20654;-77
2021/07/18 06:56:59;;;;;;;5.43;2.97;;;;;;;21.22;100.00;101497.31;4941218;29;20326;-77
2021/07/18 06:59:25;;;;;;;4.57;2.90;;;;;;;21.45;100.00;101498.88;4949273;29;20187;-77
2021/07/18 07:01:56;;;;;;;5.95;2.83;;;;;;;21.15;100.00;101492.59;4957870;28;20712;-78
2021/07/18 07:04:24;;;;;;;6.63;2.80;;;;;;;21.00;100.00;101495.81;4950357;29;20275;-78
2021/07/18 07:06:49;;;;;;;4.88;2.58;;;;;;;20.67;100.00;101500.06;4924657;29;20277;-79
2021/07/18 07:09:17;;;;;;;4.03;3.08;;;;;;;20.69;100.00;101517.13;4941988;29;20192;-79
2021/07/18 07:11:43;;;;;;;3.33;2.40;;;;;;;20.91;100.00;101503.25;4939220;29;20219;-81
2021/07/18 07:14:19;;;;;;;5.68;2.63;;;;;;;20.79;100.00;101505.81;4943993;29;20280;-80
2021/07/18 07:16:44;;;;;;;5.40;2.72;;;;;;;21.15;100.00;101509.97;4923213;29;20243;-78
2021/07/18 07:19:10;;;;;;;5.35;3.00;;;;;;;21.41;100.00;101502.59;4936874;29;20206;-77
2021/07/18 07:21:38;;;;;;;4.88;2.72;;;;;;;21.33;100.00;101508.91;4937069;29;20219;-77
2021/07/18 07:24:04;;;;;;;5.10;2.75;;;;;;;21.62;100.00;101505.22;4921460;29;20176;-78
2021/07/18 07:26:34;;;;;;;4.07;2.30;;;;;;;21.42;100.00;101491.22;4922369;29;20219;-79
2021/07/18 07:29:02;;;;;;;4.63;2.65;;;;;;;21.52;100.00;101499.22;4918727;29;20179;-78
2021/07/18 07:31:30;;;;;;;6.40;2.60;;;;;;;21.49;100.00;101499.84;4934428;29;20596;-78
2021/07/18 07:34:00;;;;;;;5.40;2.35;;;;;;;21.30;100.00;101495.72;4903433;29;20183;-78
2021/07/18 07:36:25;;;;;;;4.43;2.13;;;;;;;21.28;100.00;101504.34;4918672;29;20290;-77
2021/07/18 07:38:55;;;;;;;4.80;2.15;;;;;;;21.32;100.00;101507.28;4917819;29;20597;-79
2021/07/18 07:41:21;;;;;;;5.13;2.42;;;;;;;21.54;100.00;101515.47;4945009;28;20238;-78
2021/07/18 07:43:46;;;;;;;5.25;2.30;;;;;;;21.85;100.00;101525.25;4931895;29;20208;-76
2021/07/18 07:46:12;;;;;;;4.78;2.20;;;;;;;21.87;100.00;101507.19;4902614;29;20710;-76
2021/07/18 07:48:38;;;;;;;3.13;2.10;;;;;;;21.99;100.00;101503.75;4933540;29;20187;-76
2021/07/18 07:51:06;;;;;;;5.10;2.58;;;;;;;21.99;100.00;101501.00;4913185;29;20246;-77
2021/07/18 07:53:32;;;;;;;5.85;2.30;;;;;;;21.83;100.00;101505.38;4935476;29;20212;-77
2021/07/18 07:56:00;;;;;;;3.65;2.30;;;;;;;21.76;100.00;101502.31;4935341;29;20247;-78
2021/07/18 07:58:29;;;;;;;4.85;2.40;;;;;;;22.51;100.00;101498.66;4919757;29;20191;-78
2021/07/18 08:01:02;;;;;;;8.73;2.65;;;;;;;23.01;100.00;101504.00;4947890;28;20214;-78
2021/07/18 08:03:27;;;;;;;4.75;2.70;;;;;;;23.20;100.00;101499.69;4926209;29;20222;-77
2021/07/18 08:05:55;;;;;;;3.97;2.30;;;;;;;22.73;100.00;101502.00;4943025;28;20298;-78
2021/07/18 08:08:21;;;;;;;5.97;2.45;;;;;;;22.39;100.00;101504.06;4917129;29;20247;-72
2021/07/18 08:10:47;;;;;;;5.53;2.28;;;;;;;22.34;100.00;101500.66;4901252;29;20673;-69
2021/07/18 08:13:12;;;;;;;22.67;4.53;;;;;;;22.33;100.00;101499.84;4935505;29;20419;-80
2021/07/18 08:15:42;;;;;;;5.90;2.17;;;;;;;22.65;100.00;101502.03;4917692;29;20282;-76
2021/07/18 08:18:10;;;;;;;5.68;3.13;;;;;;;22.57;100.00;101494.56;4933815;29;20188;-77
2021/07/18 08:20:38;;;;;;;6.22;2.40;;;;;;;22.92;100.00;101503.25;4905889;29;20211;-76
2021/07/18 08:23:04;;;;;;;3.88;2.25;;;;;;;22.93;100.00;101498.50;4917444;29;20207;-72
2021/07/18 08:25:32;;;;;;;4.43;2.08;;;;;;;23.01;99.97;101498.47;4915382;28;20226;-73
2021/07/18 08:27:59;;;;;;;4.32;2.28;;;;;;;23.50;97.91;101489.34;4932284;29;20246;-73
2021/07/18 08:30:25;;;;;;;5.28;2.35;;;;;;;23.56;95.60;101488.00;4932356;28;20227;-69
2021/07/18 08:32:56;;;;;;;5.75;2.17;;;;;;;23.37;96.38;101490.41;4927768;29;20258;-70
2021/07/18 08:35:21;;;;;;;4.55;2.53;;;;;;;23.66;93.25;101483.72;4918788;29;20203;-69
2021/07/18 08:37:50;;;;;;;3.20;2.10;;;;;;;23.80;93.31;101489.78;4918601;29;20183;-70
2021/07/18 08:40:16;;;;;;;5.55;2.38;;;;;;;23.94;91.27;101490.34;4918808;29;20216;-70
2021/07/18 08:42:42;;;;;;;6.10;2.30;;;;;;;24.08;90.15;101490.84;4951000;28;20235;-69
2021/07/18 08:45:08;;;;;;;4.68;2.30;;;;;;;23.71;90.18;101489.03;4919042;29;20203;-69
2021/07/18 08:47:34;;;;;;;4.70;2.28;;;;;;;23.95;91.32;101497.50;4918367;29;20707;-68
2021/07/18 08:49:59;;;;;;;3.30;2.15;;;;;;;24.36;86.55;101485.19;4919000;29;20184;-70
2021/07/18 08:52:27;;;;;;;3.28;1.90;;;;;;;23.73;87.07;101486.75;4919181;29;20223;-69
2021/07/18 08:54:53;;;;;;;4.05;1.92;;;;;;;23.75;87.31;101489.19;4911537;29;20207;-72
2021/07/18 08:57:23;;;;;;;4.82;2.08;;;;;;;24.56;83.24;101483.47;4909908;29;20242;-72
2021/07/18 08:59:48;;;;;;;3.47;2.10;;;;;;;24.77;85.58;101485.03;4947975;29;20187;-68
2021/07/18 09:02:14;;;;;;;4.15;2.13;;;;;;;24.09;88.46;101478.59;4932187;29;20226;-70
2021/07/18 09:04:43;;;;;;;6.35;2.17;;;;;;;24.21;86.73;101493.34;4928697;29;20196;-69
2021/07/18 09:07:11;;;;;;;6.35;2.10;;;;;;;24.40;84.30;101485.31;4956246;28;20225;-69
2021/07/18 09:09:37;;;;;;;4.28;1.95;;;;;;;24.14;83.47;101481.16;4952193;28;20241;-70
2021/07/18 09:12:08;;;;;;;2.72;2.03;;;;;;;24.58;82.10;101481.16;4935037;28;20310;-70
2021/07/18 09:14:41;;;;;;;3.10;1.90;;;;;;;25.05;81.65;101480.44;4898765;29;20184;-69
2021/07/18 09:17:13;;;;;;;5.00;1.80;;;;;;;25.01;81.90;101476.75;4924746;29;20251;-69
2021/07/18 09:19:44;;;;;;;5.57;2.38;;;;;;;24.72;84.36;101490.81;4926570;29;20196;-70
2021/07/18 09:22:20;;;;;;;6.22;2.00;;;;;;;24.31;86.29;101489.34;4932912;29;20603;-70
2021/07/18 09:24:52;;;;;;;3.00;2.00;;;;;;;23.77;88.97;101493.25;4930836;29;20234;-69
2021/07/18 09:27:25;;;;;;;2.35;1.65;;;;;;;23.67;86.88;101492.84;4897973;29;20582;-70
2021/07/18 09:29:52;;;;;;;4.13;1.95;;;;;;;23.97;87.59;101492.41;4915376;29;20199;-69
2021/07/18 09:32:20;;;;;;;4.95;1.80;;;;;;;24.62;83.58;101477.38;4932068;29;20330;-71
2021/07/18 09:34:58;;;;;;;3.95;2.00;;;;;;;25.35;79.85;101475.09;4931697;29;20650;-69
2021/07/18 09:37:27;;;;;;;4.13;1.73;;;;;;;25.38;80.42;101479.94;4931087;29;20231;-69
2021/07/18 09:39:57;;;;;;;4.10;1.70;;;;;;;25.08;76.32;101486.13;4924961;29;20534;-74
2021/07/18 09:42:32;;;;;;;2.97;1.80;;;;;;;24.26;82.66;101478.41;4918654;29;20251;-78
2021/07/18 09:45:00;;;;;;;3.47;1.65;;;;;;;25.09;80.12;101475.78;4934012;29;20183;-77
2021/07/18 09:47:25;;;;;;;4.38;1.85;;;;;;;25.37;78.45;101467.19;4915867;29;20231;-78
2021/07/18 09:49:54;;;;;;;41.42;33.58;;;;;;;25.14;80.21;101465.25;4916892;29;20187;-77
2021/07/18 09:52:28;;;;;;;3.85;2.28;;;;;;;25.14;76.37;101479.97;4902478;29;20301;-77
2021/07/18 09:54:56;;;;;;;3.75;2.20;;;;;;;24.79;77.06;101482.72;4931731;29;20665;-77
2021/07/18 09:57:42;;;;;;;3.33;2.00;;;;;;;24.72;83.46;101476.91;4904588;29;20743;-76
2021/07/18 10:00:10;;;;;;;3.33;1.80;;;;;;;25.27;79.29;101467.69;4918964;29;20188;-76
2021/07/18 10:02:35;;;;;;;3.17;1.60;;;;;;;25.79;74.98;101468.53;4935641;29;20207;-77
2021/07/18 10:05:03;;;;;;;2.22;1.50;;;;;;;25.31;74.64;101468.59;4915898;29;20192;-77
2021/07/18 10:07:37;;;;;;;2.80;1.73;;;;;;;25.01;77.41;101460.03;4941160;29;20226;-77
2021/07/18 10:10:08;;;;;;;3.45;1.80;;;;;;;25.00;76.32;101462.03;4920614;29;20324;-78
2021/07/18 10:12:34;;;;;;;2.67;1.85;;;;;;;25.19;76.94;101460.25;4911999;29;20597;-79
2021/07/18 10:15:03;;;;;;;2.45;1.60;;;;;;;25.80;76.91;101462.56;4939528;29;20192;-78
2021/07/18 10:17:30;;;;;;;5.50;1.88;;;;;;;25.73;75.21;101458.78;4929221;29;20646;-78
2021/07/18 10:19:56;;;;;;;2.33;1.60;;;;;;;25.69;76.98;101452.28;4920069;29;20192;-79
2021/07/18 10:22:25;;;;;;;2.78;1.33;;;;;;;25.56;72.88;101453.47;4922489;28;20812;-78
2021/07/18 10:24:53;;;;;;;4.80;1.95;;;;;;;25.52;69.31;101444.19;4923078;29;20210;-78
2021/07/18 10:27:21;;;;;;;4.28;1.40;;;;;;;25.79;66.59;101443.47;4935462;29;20640;-77
2021/07/18 10:29:47;;;;;;;2.75;1.60;;;;;;;26.36;68.97;101439.94;4936329;29;20179;-78
2021/07/18 10:32:13;;;;;;;2.50;1.63;;;;;;;26.31;69.34;101440.19;4906497;29;20277;-78
2021/07/18 10:34:39;;;;;;;2.50;2.20;;;;;;;26.03;68.64;101436.59;4940231;29;20181;-77
2021/07/18 10:37:09;;;;;;;3.92;1.70;;;;;;;26.43;67.69;101437.34;4939288;29;20235;-78
2021/07/18 10:39:40;;;;;;;1.45;1.17;;;;;;;26.40;68.87;101440.84;4905797;29;20183;-79
2021/07/18 10:42:08;;;;;;;3.08;1.58;;;;;;;27.04;66.29;101434.53;4936240;29;20223;-78
2021/07/18 10:44:38;;;;;;;2.53;1.45;;;;;;;26.69;65.34;101437.63;4907434;29;20187;-78
2021/07/18 10:47:04;;;;;;;3.15;1.30;;;;;;;26.59;67.05;101440.94;4920760;29;20251;-78
2021/07/18 10:49:48;;;;;;;3.00;1.23;;;;;;;26.70;67.12;101446.44;4942793;29;20186;-78
2021/07/18 10:52:16;;;;;;;3.00;1.42;;;;;;;26.69;62.09;101432.03;4940679;29;20239;-79
2021/07/18 10:54:42;;;;;;;2.60;1.40;;;;;;;26.99;63.76;101426.44;4926230;29;20286;-78
2021/07/18 10:57:33;;;;;;;3.72;1.38;;;;;;;26.56;64.56;101427.72;4923004;29;20766;-77
2021/07/18 11:00:26;;;;;;;2.80;1.30;;;;;;;26.28;65.40;101435.31;4919715;29;20565;-78
2021/07/18 11:03:16;;;;;;;2.95;1.30;;;;;;;26.19;64.06;101426.31;4924853;29;20214;-78
2021/07/18 11:05:46;;;;;;;1.90;1.38;;;;;;;26.55;65.46;101431.66;4957833;29;20246;-78
2021/07/18 11:08:12;;;;;;;4.32;1.70;;;;;;;26.48;66.70;101425.91;4936315;29;20184;-78
2021/07/18 11:10:49;;;;;;;2.50;1.42;;;;;;;27.13;64.36;101410.03;4921798;29;20230;-77
2021/07/18 11:13:17;;;;;;;3.92;1.52;;;;;;;27.56;63.78;101417.06;4926553;29;20202;-78
2021/07/18 11:15:45;;;;;;;3.15;1.30;;;;;;;27.53;64.24;101412.19;4938873;29;20709;-79
2021/07/18 11:18:25;;;;;;;1.90;1.20;;;;;;;27.53;60.45;101417.78;4940828;29;20199;-78